Latest Weather Observations for Roebourne Airport

IDW60801

Issued at 3:33 pm WST Tuesday 17 October 2017 (issued every 30 minutes, with the page automatically refreshed every 10 minutes)

About weather observations | Map of weather stations | Latest weather observations for WA | Other Formats
Station Details ID: 004090 Name: ROEBOURNE AERO Lat: -20.76 Lon: 117.16 Height: 10.7 m
Data from the previous 72 hours. | See also: Recent months at Roebourne Airport
Date/Time
WST
Temp
°C
App
Temp
°C
Dew
Point
°C
Rel
Hum
%
Delta-T
°C
Wind Press
QNH
hPa
Press
MSL
hPa
Rain since
9am
mm
Dir  Spd
km/h
Gust
km/h
Spd
kts
Gust
kts
17/03:30pm 31.3 24.9 13.1 33 10.9 WNW 39 50 21 27 1007.1 1007.1 0.0
17/03:00pm 31.7 25.8 13.5 33 11.0 WNW 37 46 20 25 1007.2 1007.2 0.0
17/02:30pm 33.0 27.3 13.1 30 12.0 WNW 35 44 19 24 1007.3 1007.3 0.0
17/02:00pm 33.8 28.6 12.7 27 12.7 WNW 32 43 17 23 1007.5 1007.5 0.0
17/01:30pm 34.5 28.8 11.0 24 13.8 WNW 32 41 17 22 1007.7 1007.7 0.0
17/01:00pm 35.1 29.9 10.2 22 14.5 WNW 28 41 15 22 1008.0 1008.0 0.0
17/12:30pm 34.4 30.0 10.3 23 14.0 WNW 24 39 13 21 1008.4 1008.4 0.0
17/12:00pm 34.3 30.1 8.1 20 14.7 W 20 32 11 17 1008.9 1008.9 0.0
17/11:30am 33.1 29.1 9.2 23 13.5 W 20 30 11 16 1009.2 1009.2 0.0
17/11:00am 33.2 30.0 9.9 24 13.4 W 17 26 9 14 1009.7 1009.7 0.0
17/10:30am 31.6 28.1 10.3 27 12.2 SW 19 28 10 15 1010.2 1010.2 0.0
17/10:00am 30.8 27.0 11.2 30 11.3 SW 22 32 12 17 1010.4 1010.4 0.0
17/09:30am 29.9 26.2 11.4 32 10.7 WSW 22 30 12 16 1010.5 1010.5 0.0
17/09:00am 28.8 25.1 11.4 34 10.0 WSW 22 28 12 15 1010.7 1010.7 0.0
17/08:30am 27.2 23.7 10.8 36 9.3 WSW 20 30 11 16 1010.7 1010.7 0.0
17/08:00am 25.9 21.5 10.5 38 8.6 WSW 24 32 13 17 1010.7 1010.7 0.0
17/07:30am 25.0 20.3 10.5 40 8.1 SW 26 33 14 18 1010.3 1010.3 0.0
17/07:00am 24.3 20.4 10.9 43 7.5 WSW 22 30 12 16 1009.7 1009.7 0.0
17/06:30am 22.6 19.1 11.0 48 6.4 WSW 20 24 11 13 1009.4 1009.4 0.0
17/06:00am 22.0 18.8 11.1 50 6.0 WSW 19 24 10 13 1009.3 1009.3 0.0
17/05:30am 22.1 19.0 11.5 51 5.9 WSW 19 24 10 13 1009.0 1009.0 0.0
17/05:00am 22.3 19.6 11.7 51 5.9 WSW 17 20 9 11 1008.7 1008.7 0.0
17/04:30am 22.6 20.4 12.0 51 6.0 WSW 15 20 8 11 1008.4 1008.4 0.0
17/04:00am 23.0 20.5 12.3 51 6.1 WSW 17 24 9 13 1008.0 1008.0 0.0
17/03:30am 23.4 20.0 12.4 50 6.3 WSW 22 30 12 16 1007.7 1007.7 0.0
17/03:00am 23.7 20.7 12.7 50 6.3 WSW 20 32 11 17 1007.4 1007.4 0.0
17/02:30am 23.5 21.1 13.9 55 5.6 WSW 19 26 10 14 1007.6 1007.6 0.0
17/02:00am 22.7 20.8 14.3 59 4.9 W 17 20 9 11 1008.0 1008.0 0.0
17/01:30am 23.0 21.4 15.1 61 4.7 W 17 20 9 11 1008.2 1008.2 0.0
17/01:00am 23.1 22.2 15.9 64 4.4 W 15 20 8 11 1008.5 1008.5 0.0
17/12:30am 23.4 22.2 16.2 64 4.4 W 17 20 9 11 1008.8 1008.8 0.0
17/12:00am 23.7 23.5 16.7 65 4.3 WNW 13 17 7 9 1009.1 1009.1 0.0
 
Date/Time
WST
Temp
°C
App
Temp
°C
Dew
Point
°C
Rel
Hum
%
Delta-T
°C
Wind Press
QNH
hPa
Press
MSL
hPa
Rain since
9am
mm
Dir  Spd
km/h
Gust
km/h
Spd
kts
Gust
kts
16/11:30pm 23.9 23.3 16.7 64 4.4 WNW 15 19 8 10 1009.1 1009.1 0.0
16/11:00pm 24.6 23.3 17.3 64 4.5 W 20 24 11 13 1009.1 1009.1 0.0
16/10:30pm 25.0 23.7 17.2 62 4.8 W 20 30 11 16 1009.5 1009.5 0.0
16/10:00pm 25.4 23.7 17.1 60 5.2 W 22 30 12 16 1009.5 1009.5 0.0
16/09:30pm 25.8 23.2 16.9 58 5.5 WSW 26 35 14 19 1009.4 1009.4 0.0
16/09:00pm 26.3 23.4 17.1 57 5.7 WSW 28 39 15 21 1009.2 1009.2 0.0
16/08:30pm 26.7 24.1 16.9 55 6.1 WSW 26 35 14 19 1009.0 1009.0 0.0
16/08:00pm 27.5 25.3 16.8 52 6.7 W 24 33 13 18 1008.8 1008.8 0.0
16/07:30pm 27.8 25.5 16.7 50 6.9 W 24 32 13 17 1008.6 1008.6 0.0
16/07:00pm 28.8 25.3 16.4 47 7.7 W 30 43 16 23 1008.2 1008.2 0.0
16/06:30pm 30.8 26.8 15.2 38 9.6 WSW 30 41 16 22 1007.5 1007.5 0.0
16/06:00pm 32.9 29.4 14.5 33 11.3 WSW 26 35 14 19 1007.1 1007.1 0.0
16/05:30pm 33.9 28.5 12.3 27 12.9 WSW 32 43 17 23 1006.8 1006.8 0.0
16/05:00pm 34.7 28.6 11.8 25 13.6 WSW 35 48 19 26 1006.5 1006.5 0.0
16/04:30pm 35.8 30.2 12.1 24 14.2 SW 33 48 18 26 1006.3 1006.3 0.0
16/04:00pm 36.6 31.4 12.8 24 14.5 WSW 32 46 17 25 1006.2 1006.2 0.0
16/03:30pm 35.9 31.5 16.6 31 12.3 W 35 46 19 25 1006.0 1006.0 0.0
16/03:00pm 36.9 32.5 14.2 25 14.1 WSW 30 43 16 23 1006.2 1006.2 0.0
16/02:30pm 36.9 31.7 11.7 22 15.1 WSW 30 44 16 24 1006.5 1006.5 0.0
16/02:00pm 36.8 32.0 12.9 24 14.6 WSW 30 41 16 22 1006.7 1006.7 0.0
16/01:30pm 37.4 32.6 12.8 23 15.0 WSW 30 46 16 25 1007.2 1007.2 0.0
16/01:00pm 36.0 31.0 12.3 24 14.3 WSW 30 39 16 21 1007.7 1007.7 0.0
16/12:30pm 34.7 29.9 11.8 25 13.6 WSW 28 43 15 23 1008.3 1008.3 0.0
16/12:00pm 34.4 30.7 11.5 25 13.5 WSW 22 37 12 20 1008.9 1008.9 0.0
16/11:30am 33.6 30.0 12.0 27 12.8 WSW 22 33 12 18 1009.5 1009.5 0.0
16/11:00am 32.4 28.1 12.1 29 12.0 WSW 26 35 14 19 1010.0 1010.0 0.0
16/10:30am 31.0 26.4 12.4 32 11.0 WSW 28 37 15 20 1010.4 1010.4 0.0
16/10:00am 29.6 25.2 12.9 35 9.9 WSW 28 39 15 21 1010.7 1010.7 0.0
16/09:30am 28.2 23.9 13.3 40 8.8 SW 28 39 15 21 1011.2 1011.2 0.0
16/09:00am 27.5 23.2 13.1 41 8.5 WSW 28 37 15 20 1011.3 1011.3 0.0
16/08:30am 26.4 22.3 13.9 46 7.4 WSW 28 37 15 20 1011.4 1011.4 0.0
16/08:00am 25.0 21.5 14.5 52 6.3 SW 26 33 14 18 1011.3 1011.3 0.0
16/07:30am 23.6 20.9 14.6 57 5.3 WSW 22 28 12 15 1011.1 1011.1 0.0
16/07:00am 22.4 19.3 14.5 61 4.7 WSW 24 30 13 16 1010.9 1010.9 0.0
16/06:30am 21.5 18.9 14.9 66 3.9 WSW 22 32 12 17 1010.5 1010.5 0.0
16/06:00am 20.5 18.6 15.3 72 3.1 WSW 19 24 10 13 1010.0 1010.0 0.0
16/05:30am 20.5 18.2 15.7 74 2.9 W 22 26 12 14 1009.7 1009.7 0.0
16/05:00am 20.7 19.0 16.3 76 2.7 WSW 20 26 11 14 1009.4 1009.4 0.0
16/04:30am 20.9 19.1 16.9 78 2.4 WSW 22 26 12 14 1008.8 1008.8 0.0
16/04:00am 21.2 19.9 17.2 78 2.5 WSW 20 28 11 15 1008.9 1008.9 0.0
16/03:30am 21.5 19.5 17.5 78 2.5 WSW 24 30 13 16 1008.8 1008.8 0.0
16/03:00am 21.5 19.5 17.5 78 2.5 WSW 24 32 13 17 1008.6 1008.6 0.0
16/02:30am 21.7 19.8 17.7 78 2.5 W 24 35 13 19 1008.9 1008.9 0.0
16/02:00am 21.6 20.5 17.8 79 2.4 WSW 20 26 11 14 1008.7 1008.7 0.0
16/01:30am 21.8 20.7 17.8 78 2.5 WSW 20 30 11 16 1009.1 1009.1 0.0
16/01:00am 22.0 20.2 17.8 77 2.6 W 24 32 13 17 1009.3 1009.3 0.0
16/12:30am 22.2 20.4 17.8 76 2.7 W 24 32 13 17 1009.6 1009.6 0.0
16/12:00am 22.2 20.7 17.6 75 2.8 W 22 28 12 15 1009.9 1009.9 0.0
 
Date/Time
WST
Temp
°C
App
Temp
°C
Dew
Point
°C
Rel
Hum
%
Delta-T
°C
Wind Press
QNH
hPa
Press
MSL
hPa
Rain since
9am
mm
Dir  Spd
km/h
Gust
km/h
Spd
kts
Gust
kts
15/11:30pm 22.3 20.5 17.9 76 2.7 W 24 32 13 17 1010.0 1010.0 0.0
15/11:00pm 22.5 21.6 18.1 76 2.8 W 20 28 11 15 1010.3 1010.3 0.0
15/10:30pm 22.8 22.3 17.9 74 3.1 W 17 28 9 15 1010.5 1010.5 0.0
15/10:00pm 23.2 22.4 17.9 72 3.3 W 19 24 10 13 1010.5 1010.5 0.0
15/09:30pm 23.6 22.6 18.0 71 3.5 W 20 28 11 15 1010.4 1010.4 0.0
15/09:00pm 24.0 21.5 18.0 69 3.8 WNW 28 35 15 19 1010.2 1010.2 0.0
15/08:30pm 24.5 23.6 18.2 68 4.0 WNW 20 26 11 14 1010.2 1010.2 0.0
15/08:00pm 24.9 23.2 17.1 62 4.8 WNW 22 28 12 15 1009.7 1009.7 0.0
15/07:30pm 25.5 23.7 16.9 59 5.3 WNW 22 30 12 16 1009.4 1009.4 0.0
15/07:00pm 26.2 22.8 15.9 53 6.3 WNW 28 35 15 19 1008.7 1008.7 0.0
15/06:30pm 27.1 25.1 15.5 49 7.1 WNW 20 28 11 15 1008.3 1008.3 0.0
15/06:00pm 28.7 25.3 13.8 40 8.9 WNW 24 32 13 17 1007.8 1007.8 0.0
15/05:30pm 30.7 25.4 11.1 30 11.3 WNW 30 35 16 19 1007.4 1007.4 0.0
15/05:00pm 31.7 27.1 13.5 33 11.0 WNW 30 37 16 20 1007.1 1007.1 0.0
15/04:30pm 33.1 28.4 14.2 32 11.6 WNW 32 41 17 22 1006.9 1006.9 0.0
15/04:00pm 33.7 27.0 8.3 21 14.3 WNW 33 43 18 23 1006.9 1006.9 0.0
15/03:30pm 34.2 28.3 12.5 27 13.0 WNW 35 44 19 24 1007.0 1007.0 0.0
15/03:00pm 34.7 28.8 10.5 23 14.1 NW 32 39 17 21 1007.1 1007.1 0.0
15/02:30pm 35.6 30.5 13.1 25 13.7 WNW 32 39 17 21 1007.0 1007.0 0.0
15/02:00pm 36.0 31.6 14.1 27 13.5 WNW 30 39 16 21 1007.2 1007.2 0.0
15/01:30pm 36.4 31.5 12.6 24 14.4 WNW 30 39 16 21 1007.4 1007.4 0.0
15/01:00pm 36.4 31.9 11.3 22 14.9 WNW 26 37 14 20 1007.7 1007.7 0.0
15/12:30pm 36.5 32.0 11.3 22 15.0 WNW 26 37 14 20 1008.0 1008.0 0.0
15/12:00pm 36.0 30.4 7.1 17 16.1 WNW 26 37 14 20 1008.4 1008.4 0.0
15/11:30am 35.7 30.6 6.0 16 16.2 W 22 32 12 17 1008.7 1008.7 0.0
15/11:00am 35.1 31.2 10.9 23 14.2 W 22 33 12 18 1009.1 1009.1 0.0
15/10:30am 34.1 30.7 10.7 24 13.6 W 19 26 10 14 1009.6 1009.6 0.0
15/10:00am 32.2 28.4 9.1 24 13.0 W 19 24 10 13 1009.9 1009.9 0.0
15/09:30am 31.6 30.1 11.9 30 11.6 W 11 17 6 9 1010.0 1010.0 0.0
15/09:00am 28.9 27.4 13.2 38 9.3 W 13 17 7 9 1010.1 1010.1 0.0
15/08:30am 27.5 26.6 14.8 45 7.7 W 13 19 7 10 1010.0 1010.0 0.0
15/08:00am 26.2 25.5 15.3 51 6.6 WSW 13 19 7 10 1010.0 1010.0 0.0
15/07:30am 24.4 23.0 15.6 58 5.3 W 17 20 9 11 1010.0 1010.0 0.0
15/07:00am 22.7 21.4 15.8 65 4.2 W 17 20 9 11 1009.7 1009.7 0.0
15/06:30am 21.2 20.0 16.2 73 3.0 W 17 20 9 11 1009.3 1009.3 0.0
15/06:00am 20.4 18.9 16.2 77 2.5 W 19 20 10 11 1009.1 1009.1 0.0
15/05:30am 20.5 19.8 16.3 77 2.5 W 15 19 8 10 1009.0 1009.0 0.0
15/05:00am 20.8 20.0 16.2 75 2.8 W 15 19 8 10 1008.6 1008.6 0.0
15/04:30am 21.2 20.4 16.2 73 3.0 W 15 20 8 11 1008.3 1008.3 0.0
15/04:00am 21.4 20.6 16.1 72 3.2 W 15 17 8 9 1008.2 1008.2 0.0
15/03:30am 22.1 22.0 15.9 68 3.7 W 11 13 6 7 1008.1 1008.1 0.0
15/03:00am 22.7 21.9 16.0 66 4.1 WSW 15 20 8 11 1007.9 1007.9 0.0
15/02:30am 22.9 21.8 16.4 67 4.0 WSW 17 24 9 13 1007.9 1007.9 0.0
15/02:00am 23.0 21.9 16.3 66 4.1 WSW 17 24 9 13 1008.3 1008.3 0.0
15/01:30am 23.2 22.3 15.8 63 4.5 WSW 15 20 8 11 1008.6 1008.6 0.0
15/01:00am 23.3 21.3 15.6 62 4.6 W 20 24 11 13 1008.8 1008.8 0.0
15/12:30am 23.5 21.5 15.0 59 5.1 W 19 24 10 13 1009.0 1009.0 0.0
15/12:00am 23.7 22.3 14.4 56 5.5 WSW 15 20 8 11 1009.1 1009.1 0.0
 
Date/Time
WST
Temp
°C
App
Temp
°C
Dew
Point
°C
Rel
Hum
%
Delta-T
°C
Wind Press
QNH
hPa
Press
MSL
hPa
Rain since
9am
mm
Dir  Spd
km/h
Gust
km/h
Spd
kts
Gust
kts
14/11:30pm 23.7 21.5 14.4 56 5.5 W 19 24 10 13 1009.4 1009.4 0.0
14/11:00pm 24.3 21.5 14.4 54 5.9 W 22 28 12 15 1009.3 1009.3 0.0
14/10:30pm 24.6 22.0 15.0 55 5.7 W 22 30 12 16 1009.7 1009.7 0.0
14/10:00pm 24.8 21.9 15.1 54 5.8 W 24 32 13 17 1009.9 1009.9 0.0
14/09:30pm 25.2 23.0 14.3 50 6.5 W 19 26 10 14 1010.1 1010.1 0.0
14/09:00pm 25.7 23.2 14.2 49 6.8 W 20 28 11 15 1009.9 1009.9 0.0
14/08:30pm 26.1 23.5 13.9 47 7.2 W 20 26 11 14 1009.7 1009.7 0.0
14/08:00pm 26.6 22.6 14.0 46 7.5 W 28 35 15 19 1009.6 1009.6 0.0
14/07:30pm 27.0 24.6 14.4 46 7.5 W 20 32 11 17 1009.6 1009.6 0.0
14/07:00pm 27.8 25.3 15.1 46 7.7 WNW 22 30 12 16 1009.1 1009.1 0.0
14/06:30pm 28.8 25.0 13.5 39 9.1 WNW 26 32 14 17 1008.7 1008.7 0.0
14/06:00pm 30.4 27.3 14.5 38 9.7 WNW 24 32 13 17 1008.4 1008.4 0.0
14/05:30pm 31.8 28.3 14.4 34 10.6 WNW 26 33 14 18 1008.1 1008.1 0.0
14/05:00pm 33.4 28.7 11.9 27 12.7 WNW 28 35 15 19 1008.0 1008.0 0.0
14/04:30pm 34.8 30.3 12.5 26 13.4 WNW 28 33 15 18 1008.0 1008.0 0.0
14/04:00pm 35.5 31.1 11.8 24 14.1 WNW 26 33 14 18 1007.9 1007.9 0.0

Other Formats:

Comma delimited format used in spreadsheet applications
http://www.bom.gov.au/fwo/IDW60801/IDW60801.94308.axf

JavaScript Object Notation format (JSON) in row-major order
http://www.bom.gov.au/fwo/IDW60801/IDW60801.94308.json